Nearby METAR Reports

 

K8A0 - Albertville Muni, Alabama, USA
Distance from station: SW 1mi, 2km
Updated: 09/18/2019 1:15pm
Clear
Clear
 Wind from calm
Wind: Calm
Temperature: 90°F , 32°C
Dew Point: 61°F , 16°C
Humidity: 38%
Barometer: 30.04 inHg , 1017.3 hPa
Clouds: Clear
Visibility: 10 miles , 16 km
2019/09/18 18:15 K8A0 181815Z AUTO 00000KT 10SM CLR 32/16 A3004 RMK AO2
KGAD - Gadsden Muni, Alabama, USA
Distance from station: SSE 21mi, 35km
Updated: 09/18/2019 12:56pm
Clear
Clear
 Wind from E
Wind: E 8 mph , 13 km/h
Temperature: 91°F , 33°C
Heat Index: 96°F , 36°C
Dew Point: 70°F , 21°C
Humidity: 49%
Barometer: 30.02 inHg , 1016.6 hPa
Clouds: Clear
Visibility: 10 miles , 16 km
2019/09/18 17:56 KGAD 181756Z AUTO 09007KT 10SM CLR 33/21 A3002 RMK AO2 SLP165 T03280211 10328 20189 58005
 
K4A6 - Scottsboro, Alabama, USA
Distance from station: NNE 33mi, 53km
Updated: 09/18/2019 1:35pm
Clear
Clear
 Wind from varies
Wind: varies 7 mph , 11 km/h
Temperature: 93°F , 34°C
Heat Index: 96°F , 36°C
Dew Point: 66°F , 19°C
Humidity: 41%
Barometer: 30.01 inHg , 1016.3 hPa
Clouds: Clear
Visibility: 10 miles , 16 km
2019/09/18 18:35 K4A6 181835Z AUTO VRB06KT 10SM CLR 34/19 A3001 RMK AO2
K4A9 - Ft Payne/Isbell, Alabama, USA
Distance from station: ENE 33mi, 54km
Updated: 09/18/2019 1:15pm
Partly cloudy
Partly cloudy
 Wind from calm
Wind: Calm
Temperature: 88°F , 31°C
Heat Index: 91°F , 33°C
Dew Point: 66°F , 19°C
Humidity: 49%
Barometer: 30.03 inHg , 1016.9 hPa
Clouds: Partly cloudy
Visibility: 10 miles , 16 km
Cloud details: Partly cloudy 4900 ft
2019/09/18 18:15 K4A9 181815Z AUTO 00000KT 10SM SCT049 31/19 A3003 RMK AO2 T03110192
 
KCMD - Cullman/Folsom F, Alabama, USA
Distance from station: W 35mi, 57km
Updated: 09/18/2019 1:35pm
Clear
Clear
 Wind from NW
Wind: NW 8 mph , 13 km/h
Temperature: 93°F , 34°C
Dew Point: 61°F , 16°C
Humidity: 34%
Barometer: 30.06 inHg , 1017.9 hPa
Clouds: Clear
Visibility: 10 miles , 16 km
2019/09/18 18:35 KCMD 181835Z AUTO 32007KT 10SM CLR 34/16 A3006 RMK AO2 T03360155
KHUA - Redstone Arsenal, Alabama, USA
Distance from station: NW 40mi, 64km
Updated: 09/18/2019 12:58pm
Clear
Clear
 Wind from ENE
Wind: ENE 5 mph , 7 km/h
Temperature: 93°F , 34°C
Dew Point: 63°F , 17°C
Humidity: 36%
Barometer: 30.01 inHg , 1016.3 hPa
Clouds: Clear
Visibility: 10 miles , 16 km
2019/09/18 17:58 KHUA 181758Z AUTO 06004KT 10SM CLR 34/17 A3001 RMK AO2 SLP155 T03360168 10337 20200
 
KHSV - Huntsville, Alabama, USA
Distance from station: NW 42mi, 68km
Updated: 09/18/2019 12:53pm
Few Clouds
Few Clouds
 Wind from SE
Wind: SE 8 mph , 13 km/h
Temperature: 93°F , 34°C
Heat Index: 96°F , 36°C
Dew Point: 66°F , 19°C
Humidity: 41%
Barometer: 30.02 inHg , 1016.6 hPa
Clouds: Few Clouds
Visibility: 10 miles , 16 km
Cloud details: Few Clouds 6000 ft
2019/09/18 17:53 KHSV 181753Z 13007KT 10SM FEW060 34/19 A3002 RMK AO2 SLP156 T03390189 10344 20194 58005 $
KMDQ - Huntsville/Madis, Alabama, USA
Distance from station: NNW 47mi, 75km
Updated: 09/18/2019 1:15pm
Clear
Clear
 Wind from NE
Wind: NE 5 mph , 7 km/h
Temperature: 93°F , 34°C
Heat Index: 96°F , 36°C
Dew Point: 66°F , 19°C
Humidity: 41%
Barometer: 30.03 inHg , 1016.9 hPa
Clouds: Clear
Visibility: 10 miles , 16 km
2019/09/18 18:15 KMDQ 181815Z AUTO 04004KT 10SM CLR 34/19 A3003 RMK A02 T03360185
 
KASN - Talladega, Alabama, USA
Distance from station: SSE 48mi, 77km
Updated: 09/18/2019 1:35pm
Clear
Clear
 Wind from N
Wind: N 5 mph , 7 km/h
Temperature: 95°F , 35°C
Dew Point: 63°F , 17°C
Humidity: 34%
Clouds: Clear
Visibility: 10 miles , 16 km
2019/09/18 18:35 KASN 181835Z AUTO 36004KT 10SM CLR 35/17 RMK AO2 T03490168
KDCU - Decatur, Alabama, USA
Distance from station: NW 49mi, 80km
Updated: 09/18/2019 12:53pm
Clear
Clear
 Wind from SSW
Wind: SSW 7 mph , 11 km/h
Temperature: 93°F , 34°C
Heat Index: 96°F , 36°C
Dew Point: 66°F , 19°C
Humidity: 41%
Barometer: 30.02 inHg , 1016.6 hPa
Clouds: Clear
Visibility: 10 miles , 16 km
2019/09/18 17:53 KDCU 181753Z AUTO 20006KT 10SM CLR 34/19 A3002 RMK AO2 SLP158 T03390194 10350 20189 58004 $
 
KGKT - Sevierville, Tennessee, USA
Distance from station: NE 235mi, 378km
Updated: 09/18/2019 1:35pm
Clear
Clear
 Wind from NW
Wind: NW 7 mph , 11 km/h
Temperature: 90°F , 32°C
Heat Index: 93°F , 34°C
Dew Point: 66°F , 19°C
Humidity: 46%
Barometer: 30.03 inHg , 1016.9 hPa
Clouds: Clear
Visibility: 9 miles , 14 km
2019/09/18 18:35 KGKT 181835Z AUTO 32006KT 9SM CLR 32/19 A3003 RMK A01
KECP - Panama City, Florida, USA
Distance from station: S 330mi, 531km
Updated: 09/18/2019 12:53pm
Clear
Clear
 Wind from SW
Wind: SW 7 mph , 11 km/h
Temperature: 99°F , 37°C
Dew Point: 66°F , 19°C
Humidity: 35%
Barometer: 29.95 inHg , 1014.2 hPa
Clouds: Clear
Visibility: 10 miles , 16 km
2019/09/18 17:53 KECP 181753Z 23006KT 10SM CLR 37/19 A2995 RMK AO2 SLP151 T03720194 10378 20239 58007
 
KNYL - Yuma MCAS, Arizona, USA
Distance from station: SW 1900mi, 3600km
Updated: 09/18/2019 12:57pm
Clear
Clear
 Wind from N
Wind: N 3 mph , 6 km/h
Temperature: 93°F , 34°C
Dew Point: 30°F , -1°C
Humidity: 11%
Barometer: 29.83 inHg , 1010.2 hPa
Clouds: Clear
Visibility: 7 miles , 11 km
2019/09/18 17:57 KNYL 181757Z 36003KT 7SM CLR 34/M01 A2983 RMK AO2 SLP099 T03441006 10344 20244 50003